Flight Track Log - Related Links

Times and Time Zones

All times are in EDT time to prevent confusion due to time zone crossing. See the N357FE flight status page for this flight to view local times or setup timezone preferences in your user account.

Time Position Orientation Groundspeed Altitude Reporting Facility
EDT Latitude Longitude Course Direction KTS MPH feet Rate Location/Type
Sat 12:23:17 AM 45.5350 -74.3960 244° Southwest 271 312 12,400  Level FlightAware ADS-B
Sat 12:24:02 AM 45.5110 -74.4760 247° West 309 356 13,500 1,906 Climbing FlightAware ADS-B
Sat 12:24:42 AM 45.5010 -74.5560 260° West 318 366 15,100 1,950 Climbing FlightAware ADS-B
Sat 12:25:22 AM 45.4890 -74.6410 259° West 337 388 16,100 1,694 Climbing FlightAware ADS-B
Sat 12:26:07 AM 45.4740 -74.7430 258° West 346 398 17,500 1,906 Climbing FlightAware ADS-B
Sat 12:26:47 AM 45.4620 -74.8310 259° West 351 404 18,800 1,976 Climbing FlightAware ADS-B
Sat 12:27:32 AM 45.4480 -74.9330 259° West 352 405 20,300 1,835 Climbing FlightAware ADS-B
Sat 12:28:12 AM 45.4340 -75.0240 258° West 358 412 21,400 1,500 Climbing FlightAware ADS-B
Sat 12:28:52 AM 45.4210 -75.1200 259° West 366 421 22,300 1,412 Climbing FlightAware ADS-B
Sat 12:29:37 AM 45.4050 -75.2260 258° West 370 426 23,400 1,482 Climbing FlightAware ADS-B
Sat 12:30:17 AM 45.3910 -75.3200 258° West 373 429 24,400 1,482 Climbing FlightAware ADS-B
Sat 12:31:02 AM 45.3750 -75.4300 258° West 375 432 25,500 1,412 Climbing FlightAware ADS-B
Sat 12:31:42 AM 45.3610 -75.5250 258° West 377 434 26,400 1,200 Climbing FlightAware ADS-B
Sat 12:32:22 AM 45.3460 -75.6230 258° West 383 441 27,100 918 Climbing FlightAware ADS-B
Sat 12:33:07 AM 45.3290 -75.7350 258° West 392 451 27,700 918 Climbing FlightAware ADS-B
Sat 12:33:47 AM 45.3140 -75.8360 258° West 396 456 28,400 988 Climbing FlightAware ADS-B
Sat 12:34:32 AM 45.2970 -75.9510 258° West 401 461 29,100 988 Climbing FlightAware ADS-B
Sat 12:35:12 AM 45.2810 -76.0550 258° West 406 467 29,800 1,271 Climbing FlightAware ADS-B
Sat 12:35:57 AM 45.2630 -76.1710 258° West 397 457 30,900 1,520 Climbing FlightAware ADS-B
Sat 12:36:27 AM 45.2480 -76.2470 254° West 383 441 31,700 1,500 Climbing FlightAware ADS-B
Sat 12:37:17 AM 45.2080 -76.3510 241° Southwest 355 409 32,900 1,263 Climbing FlightAware ADS-B
Sat 12:38:02 AM 45.1720 -76.4420 241° Southwest 349 402 33,700 988 Climbing FlightAware ADS-B
Sat 12:38:42 AM 45.1400 -76.5150 238° Southwest 339 390 34,300 918 Climbing FlightAware ADS-B
Sat 12:39:27 AM 45.1030 -76.5970 237° Southwest 332 382 35,000 847 Climbing FlightAware ADS-B
Sat 12:40:07 AM 45.0710 -76.6670 237° Southwest 335 386 35,500 750 Climbing FlightAware ADS-B
Sat 12:40:47 AM 45.0340 -76.7480 237° Southwest 333 383 36,000 353 Climbing FlightAware ADS-B
Sat 12:41:32 AM 44.9960 -76.8320 237° Southwest 334 384 36,000  Level FlightAware ADS-B
Sat 12:42:12 AM 44.9620 -76.9030 236° Southwest 334 384 36,000  Level FlightAware ADS-B
Sat 12:42:52 AM 44.9290 -76.9770 238° Southwest 334 384 36,000  Level FlightAware ADS-B
Sat 12:43:32 AM 44.8980 -77.0420 236° Southwest 331 381 36,000  Level FlightAware ADS-B
Sat 12:44:17 AM 44.8570 -77.1310 237° Southwest 332 382 36,000  Level FlightAware ADS-B
Sat 12:45:02 AM 44.8200 -77.2110 237° Southwest 330 380 36,000  Level FlightAware ADS-B
Sat 12:45:37 AM 44.7890 -77.2770 237° Southwest 330 380 36,000  Level FlightAware ADS-B
Sat 12:46:22 AM 44.7550 -77.3480 236° Southwest 330 380 36,000  Level FlightAware ADS-B
Sat 12:47:07 AM 44.7130 -77.4370 236° Southwest 328 377 36,000  Level FlightAware ADS-B
Sat 12:47:47 AM 44.6800 -77.5100 238° Southwest 328 377 36,000  Level FlightAware ADS-B
Sat 12:48:32 AM 44.6420 -77.5890 236° Southwest 328 377 36,000  Level FlightAware ADS-B
Sat 12:49:12 AM 44.6100 -77.6580 237° Southwest 327 376 36,000  Level FlightAware ADS-B
Sat 12:49:52 AM 44.5750 -77.7300 236° Southwest 325 374 36,000  Level FlightAware ADS-B
Sat 12:50:37 AM 44.5380 -77.8090 237° Southwest 324 373 36,000  Level FlightAware ADS-B
Sat 12:51:17 AM 44.5050 -77.8790 237° Southwest 323 372 36,000  Level FlightAware ADS-B
Sat 12:52:02 AM 44.4670 -77.9570 236° Southwest 322 371 36,000  Level FlightAware ADS-B
Sat 12:52:42 AM 44.4340 -78.0280 237° Southwest 323 372 36,000  Level FlightAware ADS-B
Sat 12:53:27 AM 44.3960 -78.1050 235° Southwest 323 372 36,000  Level FlightAware ADS-B
Sat 12:54:07 AM 44.3640 -78.1720 236° Southwest 324 373 36,000  Level FlightAware ADS-B
Sat 12:54:52 AM 44.3250 -78.2520 236° Southwest 325 374 36,000  Level FlightAware ADS-B
Sat 12:55:32 AM 44.2920 -78.3220 237° Southwest 325 374 36,000  Level FlightAware ADS-B
Sat 12:56:12 AM 44.2590 -78.3900 236° Southwest 320 368 36,000  Level FlightAware ADS-B
Sat 12:56:47 AM 44.2310 -78.4470 236° Southwest 322 371 36,000  Level FlightAware ADS-B
Sat 12:57:37 AM 44.1860 -78.5400 236° Southwest 327 376 36,000  Level FlightAware ADS-B
Sat 12:58:22 AM 44.1480 -78.6180 236° Southwest 331 381 36,000  Level FlightAware ADS-B
Sat 12:58:57 AM 44.1190 -78.6790 237° Southwest 333 383 36,000  Level FlightAware ADS-B
Sat 12:59:37 AM 44.0890 -78.7390 235° Southwest 333 383 36,000  Level FlightAware ADS-B
Sat 01:00:27 AM 44.0530 -78.8150 237° Southwest 333 383 36,000  Level FlightAware ADS-B
Sat 01:01:07 AM 44.0230 -78.8750 235° Southwest 333 383 36,000  Level FlightAware ADS-B
Sat 01:01:47 AM 43.9940 -78.9350 236° Southwest 333 383 36,000  Level FlightAware ADS-B
Sat 01:02:32 AM 43.9210 -79.0770 235° Southwest 350 403 36,000  Level FlightAware ADS-B
Sat 01:03:12 AM 43.8850 -79.1500 236° Southwest 354 407 36,000  Level FlightAware ADS-B
Sat 01:03:47 AM 43.8540 -79.2130 236° Southwest 353 406 36,000 71 Level FlightAware ADS-B
Sat 01:04:37 AM 43.8090 -79.3010 235° Southwest 356 410 36,100  Climbing FlightAware ADS-B
Sat 01:05:22 AM 43.7650 -79.3890 235° Southwest 357 411 36,000 -75 Descending FlightAware ADS-B
Sat 01:05:57 AM 43.7320 -79.4550 235° Southwest 357 411 36,000  Level FlightAware ADS-B
Sat 01:06:42 AM 43.6900 -79.5390 235° Southwest 357 411 36,000  Level FlightAware ADS-B
Sat 01:07:27 AM 43.6470 -79.6230 235° Southwest 357 411 36,000  Level FlightAware ADS-B
Sat 01:08:07 AM 43.6090 -79.6970 235° Southwest 343 395 36,000  Level FlightAware ADS-B
Sat 01:08:47 AM 43.5720 -79.7690 235° Southwest 349 402 36,000  Level FlightAware ADS-B
Sat 01:09:32 AM 43.5300 -79.8540 236° Southwest 357 411 36,000  Level FlightAware ADS-B
Sat 01:10:12 AM 43.4920 -79.9270 234° Southwest 364 419 36,000  Level FlightAware ADS-B
Sat 01:10:57 AM 43.4470 -80.0150 235° Southwest 369 425 36,000  Level FlightAware ADS-B
Sat 01:11:37 AM 43.4080 -80.0900 234° Southwest 371 427 36,000  Level FlightAware ADS-B
Sat 01:12:22 AM 43.3640 -80.1770 235° Southwest 371 427 36,000  Level FlightAware ADS-B
Sat 01:13:02 AM 43.3240 -80.2540 234° Southwest 373 429 36,000  Level FlightAware ADS-B
Sat 01:13:42 AM 43.2850 -80.3300 235° Southwest 377 434 36,000  Level FlightAware ADS-B
Sat 01:14:27 AM 43.2360 -80.4210 234° Southwest 381 438 36,000  Level FlightAware ADS-B
Sat 01:15:07 AM 43.1900 -80.4930 229° Southwest 384 442 36,000  Level FlightAware ADS-B
Sat 01:15:52 AM 43.1370 -80.5760 229° Southwest 390 449 36,000  Level FlightAware ADS-B
Sat 01:16:32 AM 43.0900 -80.6490 229° Southwest 391 450 36,000 75 Level FlightAware ADS-B
Sat 01:17:12 AM 43.0410 -80.7250 229° Southwest 389 448 36,100 71 Climbing FlightAware ADS-B
Sat 01:17:57 AM 42.9880 -80.8080 229° Southwest 388 447 36,100 -71 Level FlightAware ADS-B
Sat 01:18:37 AM 42.9410 -80.8800 228° Southwest 389 448 36,000 -75 Descending FlightAware ADS-B
Sat 01:19:17 AM 42.8930 -80.9540 228° Southwest 391 450 36,000  Level FlightAware ADS-B
Sat 01:20:02 AM 42.8390 -81.0370 228° Southwest 396 456 36,000  Level FlightAware ADS-B
Sat 01:20:42 AM 42.7910 -81.1120 229° Southwest 400 460 36,000  Level FlightAware ADS-B
Sat 01:21:27 AM 42.7360 -81.1970 229° Southwest 398 458 36,000  Level FlightAware ADS-B
Sat 01:22:07 AM 42.6880 -81.2700 228° Southwest 399 459 36,000  Level FlightAware ADS-B
Sat 01:22:47 AM 42.6350 -81.3490 228° Southwest 400 460 36,000  Level FlightAware ADS-B
Sat 01:23:22 AM 42.6060 -81.3940 229° Southwest 401 461 36,000 80 Level FlightAware ADS-B
Sat 01:24:02 AM 42.5540 -81.4730 228° Southwest 400 460 36,100 63 Climbing FlightAware ADS-B
Sat 01:24:57 AM 42.4870 -81.5750 228° Southwest 400 460 36,100 -57 Level FlightAware ADS-B
Sat 01:25:47 AM 42.4260 -81.6670 228° Southwest 400 460 36,000 -67 Descending FlightAware ADS-B
Sat 01:26:27 AM 42.3740 -81.7450 228° Southwest 401 461 36,000  Level FlightAware ADS-B
Sat 01:27:12 AM 42.3200 -81.8260 228° Southwest 402 463 36,000  Level FlightAware ADS-B
Sat 01:27:57 AM 42.2630 -81.9120 228° Southwest 403 464 36,000 75 Level FlightAware ADS-B
Sat 01:28:32 AM 42.2220 -81.9710 227° Southwest 402 463 36,100 80 Climbing FlightAware ADS-B
Sat 01:29:12 AM 42.1720 -82.0480 229° Southwest 401 461 36,100  Level FlightAware ADS-B
Sat 01:30:07 AM 42.1030 -82.1490 227° Southwest 399 459 36,100 -67 Level FlightAware ADS-B
Sat 01:30:42 AM 42.0620 -82.2100 228° Southwest 398 458 36,000 -75 Descending FlightAware ADS-B
Sat 01:31:27 AM 42.0040 -82.2940 227° Southwest 397 457 36,000  Level FlightAware ADS-B
Sat 01:32:12 AM 41.9320 -82.4010 228° Southwest 396 456 36,000  Level FlightAware ADS-B
Sat 01:32:52 AM 41.8810 -82.4750 227° Southwest 394 453 36,000  Level FlightAware ADS-B
Sat 01:33:32 AM 41.8310 -82.5490 228° Southwest 393 452 36,000  Level FlightAware ADS-B
Sat 01:34:17 AM 41.7750 -82.6300 227° Southwest 394 453 36,000  Level FlightAware ADS-B
Sat 01:34:57 AM 41.7280 -82.6990 228° Southwest 395 455 36,000  Level FlightAware ADS-B
Sat 01:35:42 AM 41.6720 -82.7790 227° Southwest 396 456 36,000  Level FlightAware ADS-B
Sat 01:36:22 AM 41.6210 -82.8530 227° Southwest 395 455 36,000  Level FlightAware ADS-B
Sat 01:37:02 AM 41.5710 -82.9250 227° Southwest 396 456 36,000  Level FlightAware ADS-B
Sat 01:37:42 AM 41.5200 -82.9980 227° Southwest 396 456 36,000  Level FlightAware ADS-B
Sat 01:38:27 AM 41.4650 -83.0770 227° Southwest 397 457 36,000  Level FlightAware ADS-B
Sat 01:39:07 AM 41.4150 -83.1490 227° Southwest 398 458 36,000  Level FlightAware ADS-B
Sat 01:39:52 AM 41.3580 -83.2320 228° Southwest 399 459 36,000  Level FlightAware ADS-B
Sat 01:40:32 AM 41.3070 -83.3040 227° Southwest 401 461 36,000  Level FlightAware ADS-B
Sat 01:41:17 AM 41.2510 -83.3830 227° Southwest 405 466 36,000  Level FlightAware ADS-B
Sat 01:41:57 AM 41.2000 -83.4560 227° Southwest 405 466 36,000  Level FlightAware ADS-B
Sat 01:42:42 AM 41.1420 -83.5380 227° Southwest 408 470 36,000  Level FlightAware ADS-B
Sat 01:43:22 AM 41.0900 -83.6110 227° Southwest 410 472 36,000  Level FlightAware ADS-B
Sat 01:44:02 AM 41.0360 -83.6860 226° Southwest 411 473 36,000  Level FlightAware ADS-B
Sat 01:44:47 AM 40.9780 -83.7670 227° Southwest 415 478 36,000  Level FlightAware ADS-B
Sat 01:45:27 AM 40.9250 -83.8430 227° Southwest 415 478 36,000  Level FlightAware ADS-B
Sat 01:46:12 AM 40.8640 -83.9280 227° Southwest 417 480 36,000  Level FlightAware ADS-B
Sat 01:46:52 AM 40.8140 -83.9980 227° Southwest 417 480 36,000  Level FlightAware ADS-B
Sat 01:47:37 AM 40.7530 -84.0820 226° Southwest 419 482 36,000  Level FlightAware ADS-B
Sat 01:48:17 AM 40.7010 -84.1540 226° Southwest 420 483 36,000  Level FlightAware ADS-B
Sat 01:48:57 AM 40.6460 -84.2300 226° Southwest 420 483 36,000  Level FlightAware ADS-B
Sat 01:49:42 AM 40.5860 -84.3130 226° Southwest 422 486 36,000 71 Level FlightAware ADS-B
Sat 01:50:22 AM 40.5320 -84.3870 226° Southwest 421 484 36,100  Climbing FlightAware ADS-B
Sat 01:51:02 AM 40.4800 -84.4590 226° Southwest 413 475 36,000 -71 Descending FlightAware ADS-B
Sat 01:51:47 AM 40.4200 -84.5400 226° Southwest 406 467 36,000  Level FlightAware ADS-B
Sat 01:52:27 AM 40.3690 -84.6110 227° Southwest 404 465 36,000  Level FlightAware ADS-B
Sat 01:53:07 AM 40.3160 -84.6810 225° Southwest 405 466 36,000  Level FlightAware ADS-B
Sat 01:53:52 AM 40.2600 -84.7590 227° Southwest 406 467 36,000 67 Level FlightAware ADS-B
Sat 01:54:37 AM 40.1960 -84.8440 225° Southwest 408 470 36,100 71 Climbing FlightAware ADS-B
Sat 01:55:17 AM 40.1460 -84.9110 226° Southwest 408 470 36,100 -75 Level FlightAware ADS-B
Sat 01:55:57 AM 40.0910 -84.9860 226° Southwest 408 470 36,000 -71 Descending FlightAware ADS-B
Sat 01:56:42 AM 40.0330 -85.0640 226° Southwest 410 472 36,000  Level FlightAware ADS-B
Sat 01:57:17 AM 39.9850 -85.1280 226° Southwest 412 474 36,000 71 Level FlightAware ADS-B
Sat 01:58:07 AM 39.9210 -85.2130 226° Southwest 413 475 36,100  Climbing FlightAware ADS-B
Sat 01:58:47 AM 39.8680 -85.2850 226° Southwest 412 474 36,000 -80 Descending FlightAware ADS-B
Sat 01:59:22 AM 39.8210 -85.3460 225° Southwest 411 473 36,000  Level FlightAware ADS-B
Sat 02:00:07 AM 39.7630 -85.4240 226° Southwest 407 468 36,000  Level FlightAware ADS-B
Sat 02:00:47 AM 39.7100 -85.4930 225° Southwest 402 463 36,000  Level FlightAware ADS-B
Sat 02:01:37 AM 39.6410 -85.5850 226° Southwest 401 461 36,000  Level FlightAware ADS-B
Sat 02:02:12 AM 39.5950 -85.6450 225° Southwest 400 460 36,000  Level FlightAware ADS-B
Sat 02:02:57 AM 39.5380 -85.7220 226° Southwest 401 461 36,000  Level FlightAware ADS-B
Sat 02:03:42 AM 39.4820 -85.7940 225° Southwest 405 466 36,000  Level FlightAware ADS-B
Sat 02:04:22 AM 39.4280 -85.8650 225° Southwest 405 466 36,000  Level FlightAware ADS-B
Sat 02:05:07 AM 39.3690 -85.9410 225° Southwest 398 458 36,000  Level FlightAware ADS-B
Sat 02:05:47 AM 39.3160 -86.0100 225° Southwest 395 455 36,000  Level FlightAware ADS-B
Sat 02:06:22 AM 39.2720 -86.0670 225° Southwest 392 451 36,000  Level FlightAware ADS-B
Sat 02:07:12 AM 39.2070 -86.1520 225° Southwest 389 448 36,000  Level FlightAware ADS-B
Sat 02:07:52 AM 39.1560 -86.2170 225° Southwest 390 449 36,000  Level FlightAware ADS-B
Sat 02:08:32 AM 39.0990 -86.2760 219° Southwest 396 456 36,000  Level FlightAware ADS-B
Sat 02:09:17 AM 39.0330 -86.3440 219° Southwest 399 459 36,000  Level FlightAware ADS-B
Sat 02:09:57 AM 38.9740 -86.4050 219° Southwest 402 463 36,000 71 Level FlightAware ADS-B
Sat 02:10:42 AM 38.9100 -86.4690 218° Southwest 404 465 36,100  Climbing FlightAware ADS-B
Sat 02:11:22 AM 38.8510 -86.5290 218° Southwest 407 468 36,000  Descending FlightAware ADS-B
Sat 02:12:07 AM 38.7870 -86.5950 219° Southwest 409 471 36,100 71 Climbing FlightAware ADS-B
Sat 02:12:47 AM 38.7240 -86.6590 218° Southwest 412 474 36,100 -75 Level FlightAware ADS-B
Sat 02:13:27 AM 38.6640 -86.7200 218° Southwest 415 478 36,000  Descending FlightAware ADS-B
Sat 02:14:12 AM 38.5970 -86.7880 218° Southwest 416 479 36,100 71 Climbing FlightAware ADS-B
Sat 02:14:52 AM 38.5370 -86.8490 219° Southwest 416 479 36,100 -75 Level FlightAware ADS-B
Sat 02:15:32 AM 38.4760 -86.9100 218° Southwest 415 478 36,000 -71 Descending FlightAware ADS-B
Sat 02:16:17 AM 38.4080 -86.9790 218° Southwest 414 476 36,000  Level FlightAware ADS-B
Sat 02:17:02 AM 38.3410 -87.0460 218° Southwest 416 479 36,000  Level FlightAware ADS-B
Sat 02:17:42 AM 38.2790 -87.1080 218° Southwest 418 481 36,000  Level FlightAware ADS-B
Sat 02:18:22 AM 38.2180 -87.1670 217° Southwest 419 482 36,000  Level FlightAware ADS-B
Sat 02:19:02 AM 38.1570 -87.2280 218° Southwest 420 483 36,000  Level FlightAware ADS-B
Sat 02:19:47 AM 38.0900 -87.2950 218° Southwest 420 483 36,000  Level FlightAware ADS-B
Sat 02:20:27 AM 38.0290 -87.3560 218° Southwest 420 483 36,000  Level FlightAware ADS-B
Sat 02:21:12 AM 37.9590 -87.4260 218° Southwest 422 486 36,000  Level FlightAware ADS-B
Sat 02:21:52 AM 37.8960 -87.4870 217° Southwest 424 488 36,000 75 Level FlightAware ADS-B
Sat 02:22:32 AM 37.8330 -87.5490 218° Southwest 424 488 36,100 71 Climbing FlightAware ADS-B
Sat 02:23:17 AM 37.7640 -87.6160 218° Southwest 423 487 36,100  Level FlightAware ADS-B
Sat 02:23:57 AM 37.7040 -87.6750 218° Southwest 421 484 36,100 -71 Level FlightAware ADS-B
Sat 02:24:42 AM 37.6320 -87.7420 216° Southwest 420 483 36,000 -71 Descending FlightAware ADS-B
Sat 02:25:22 AM 37.5680 -87.7990 215° Southwest 418 481 36,000  Level FlightAware ADS-B
Sat 02:26:02 AM 37.5060 -87.8540 215° Southwest 417 480 36,000  Level FlightAware ADS-B
Sat 02:26:47 AM 37.4330 -87.9190 215° Southwest 415 478 36,000  Level FlightAware ADS-B
Sat 02:27:27 AM 37.3730 -87.9740 216° Southwest 413 475 36,000  Level FlightAware ADS-B
Sat 02:28:12 AM 37.3020 -88.0360 215° Southwest 411 473 36,000  Level FlightAware ADS-B
Sat 02:28:47 AM 37.2480 -88.0850 216° Southwest 410 472 36,000  Level FlightAware ADS-B
Sat 02:29:27 AM 37.1850 -88.1410 215° Southwest 408 470 36,000  Level FlightAware ADS-B
Sat 02:30:17 AM 37.1100 -88.2070 215° Southwest 406 467 36,000  Level FlightAware ADS-B
Sat 02:30:47 AM 37.0660 -88.2460 215° Southwest 405 466 36,000  Level FlightAware ADS-B
Sat 02:31:37 AM 36.9850 -88.3180 215° Southwest 402 463 36,000  Level FlightAware ADS-B
Sat 02:32:37 AM 36.9000 -88.3920 215° Southwest 402 463 36,000  Level FlightAware ADS-B
Sat 02:33:17 AM 36.8350 -88.4490 215° Southwest 405 466 36,000  Level FlightAware ADS-B
Sat 02:34:02 AM 36.7630 -88.5120 215° Southwest 406 467 36,000  Level FlightAware ADS-B
Sat 02:34:42 AM 36.7010 -88.5660 215° Southwest 406 467 36,000  Level FlightAware ADS-B
Sat 02:35:22 AM 36.6390 -88.6200 215° Southwest 407 468 36,000  Level FlightAware ADS-B
Sat 02:36:07 AM 36.5720 -88.6780 215° Southwest 409 471 36,000  Level FlightAware ADS-B
Sat 02:37:02 AM 36.4910 -88.7470 214° Southwest 410 472 36,000  Level FlightAware ADS-B
Sat 02:37:42 AM 36.4380 -88.7920 214° Southwest 410 472 36,000  Level FlightAware ADS-B
Sat 02:38:22 AM 36.3840 -88.8370 214° Southwest 410 472 36,000  Level FlightAware ADS-B
Sat 02:39:02 AM 36.3310 -88.8820 214° Southwest 410 472 36,000  Level FlightAware ADS-B
Sat 02:39:42 AM 36.2770 -88.9260 213° Southwest 410 472 36,000  Level FlightAware ADS-B
Sat 02:40:32 AM 36.2100 -88.9820 214° Southwest 410 472 36,000  Level FlightAware ADS-B
Sat 02:41:12 AM 36.1570 -89.0270 214° Southwest 410 472 36,000  Level FlightAware ADS-B
Sat 02:41:52 AM 36.1030 -89.0720 214° Southwest 410 472 36,000  Level FlightAware ADS-B
Sat 02:42:32 AM 36.0500 -89.1160 214° Southwest 410 472 36,000  Level FlightAware ADS-B
Sat 02:43:22 AM 35.9830 -89.1720 214° Southwest 410 472 36,000  Level FlightAware ADS-B
Sat 02:44:02 AM 35.9300 -89.2160 214° Southwest 410 472 36,000  Level FlightAware ADS-B
Sat 02:44:42 AM 35.8760 -89.2610 214° Southwest 410 472 36,000  Level FlightAware ADS-B
Sat 02:45:22 AM 35.8230 -89.3050 214° Southwest 410 472 36,000  Level FlightAware ADS-B
Sat 02:46:02 AM 35.7690 -89.3500 214° Southwest 410 472 36,000 -19,433 Level FlightAware ADS-B
Sat 02:46:29 AM 35.6819 -89.4419 214° Southwest 352 405 14,300 -16,345 Descending Memphis Center
Sat 02:47:29 AM 35.6072 -89.5067 215° Southwest 339 390 12,300 -1,650 Descending Memphis Center
Sat 02:48:29 AM 35.5306 -89.5686 213° Southwest 334 384 11,000 -1,200 Descending Memphis Center
Sat 02:49:29 AM 35.4494 -89.6000 197° South 312 359 9,900 -1,400 Descending Memphis Center
Sat 02:50:29 AM 35.3786 -89.6289 198° South 305 351 8,200 -1,650 Descending Memphis Center
Sat 02:51:29 AM 35.2994 -89.6522 194° South 295 339 6,600 -1,450 Descending Memphis Center
Sat 02:52:29 AM 35.2267 -89.6758 195° South 290 334 5,300 -1,150 Descending Memphis Center
Sat 02:53:29 AM 35.1558 -89.6992 195° South 277 319 4,300 -800 Descending Memphis Center
Sat 02:54:29 AM 35.0911 -89.7200 195° South 250 288 3,700 -750 Descending Memphis Center
Sat 02:55:29 AM 35.0558 -89.7558 220° Southwest 156 180 2,800 -900 Descending Memphis Center
Sat 02:56:29 AM 35.0561 -89.8092 270° West 150 173 1,900 -450 Descending Memphis Center
Sat 02:57:29 AM 35.0564 -89.8547 270° West 150 173 1,900 -258 Level Memphis Center
Sat 02:58:02 AM 35.0500 -89.8833 255° West 130 150 1,500 -710 Descending KMEM
Sat 02:59:02 AM 35.0500 -89.9333 270° West 129 148 800 -700 Descending KMEM
Sat 03:01:00 AM 35.0333 -89.9667 243° Southwest  Level FlightAware Approximate
Sat 03:08:00 AM 35.0424 -89.9767 243° Southwest  Level Estimated
Sat 03:09:00 AM 35.0424 -89.9767 243° Southwest  Level Estimated
Sat 03:10:00 AM 35.0424 -89.9767 243° Southwest  Level Estimated
Sat 03:11:00 AM 35.0424 -89.9767 243° Southwest  Level Estimated
Sat 03:12:00 AM 35.0424 -89.9767 243° Southwest  Level Estimated
Sat 03:13:00 AM 35.0424 -89.9767 243° Southwest  Level Estimated

Login

Don't have an account? Register now (free) for customized features, flight alerts, and more!